createdAt,value
2018-07-29T00:00:00.314Z,22.9
2018-07-29T00:01:01.670Z,23.3
2018-07-29T00:02:02.812Z,23.5
2018-07-29T00:03:04.961Z,23.3
2018-07-29T00:04:08.535Z,23
2018-07-29T00:05:09.713Z,23.2
2018-07-29T00:06:11.095Z,23.5
2018-07-29T00:07:12.346Z,23.7
2018-07-29T00:08:13.485Z,23.8
2018-07-29T00:09:14.814Z,23.7
2018-07-29T00:10:15.952Z,23.6
2018-07-29T00:11:17.109Z,23.6
2018-07-29T00:12:18.310Z,23.7
2018-07-29T00:13:19.529Z,23.7
2018-07-29T00:14:20.714Z,23.4
2018-07-29T00:15:21.864Z,23.5
2018-07-29T00:16:23.044Z,23.7
2018-07-29T00:17:24.249Z,23.7
2018-07-29T00:18:25.396Z,23.5
2018-07-29T00:19:26.543Z,23.5
2018-07-29T00:20:27.656Z,23.6
2018-07-29T00:21:29.801Z,23.7
2018-07-29T00:22:31.024Z,23.5
2018-07-29T00:23:32.148Z,23.6
2018-07-29T00:24:33.287Z,23.7
2018-07-29T00:25:34.417Z,23.8
2018-07-29T00:26:35.536Z,23.8
2018-07-29T00:27:36.690Z,23.7
2018-07-29T00:28:37.848Z,23.7
2018-07-29T00:29:39.029Z,23.7
2018-07-29T00:30:40.150Z,23.7
2018-07-29T00:31:41.326Z,23.6
2018-07-29T00:32:43.471Z,23.6
2018-07-29T00:33:44.599Z,23.7
2018-07-29T00:34:45.729Z,23.7
2018-07-29T00:35:47.110Z,23.8
2018-07-29T00:36:48.242Z,23.8
2018-07-29T00:37:49.850Z,23.7
2018-07-29T00:38:51.206Z,23.5
2018-07-29T00:39:52.379Z,23.5
2018-07-29T00:40:56.397Z,23.5
2018-07-29T00:41:57.537Z,23.3
2018-07-29T00:43:01.206Z,23.2
2018-07-29T00:44:02.350Z,23.2
2018-07-29T00:45:03.551Z,23.1
2018-07-29T00:46:04.684Z,23
2018-07-29T00:47:05.849Z,22.9
2018-07-29T00:48:09.390Z,22.8
2018-07-29T00:49:10.551Z,22.9
2018-07-29T00:50:14.125Z,23.1
2018-07-29T00:51:15.268Z,23.4
2018-07-29T00:52:16.413Z,23.5
2018-07-29T00:53:17.611Z,23.6
2018-07-29T00:54:18.737Z,23.6
2018-07-29T00:55:19.920Z,23.6
2018-07-29T00:56:21.305Z,23.6
2018-07-29T00:57:22.435Z,23.6
2018-07-29T00:58:23.848Z,23.6
2018-07-29T00:59:24.987Z,23.6
2018-07-29T01:00:26.132Z,23.5
2018-07-29T01:01:27.284Z,23.5
2018-07-29T01:02:28.455Z,23.4
2018-07-29T01:03:29.700Z,23.5
2018-07-29T01:04:30.854Z,23.5
2018-07-29T01:05:31.996Z,23.5
2018-07-29T01:06:33.164Z,23.4
2018-07-29T01:07:34.292Z,23.4
2018-07-29T01:08:35.488Z,23.4
2018-07-29T01:09:36.651Z,23.4
2018-07-29T01:10:37.843Z,23.4
2018-07-29T01:11:38.976Z,23.4
2018-07-29T01:12:40.093Z,23.3
2018-07-29T01:13:41.272Z,23.3
2018-07-29T01:14:42.412Z,23.5
2018-07-29T01:15:43.803Z,23.5
2018-07-29T01:16:46.035Z,23.5
2018-07-29T01:17:47.212Z,23.5
2018-07-29T01:18:48.401Z,23.5
2018-07-29T01:19:49.629Z,23.4
2018-07-29T01:20:50.685Z,23.5
2018-07-29T01:21:51.852Z,23.5
2018-07-29T01:22:53.009Z,23.4
2018-07-29T01:23:54.185Z,23.3
2018-07-29T01:24:55.307Z,23.1
2018-07-29T01:25:56.432Z,23
2018-07-29T01:26:57.584Z,23
2018-07-29T01:27:58.713Z,22.8
2018-07-29T01:28:59.906Z,22.8
2018-07-29T01:30:01.038Z,23
2018-07-29T01:31:02.180Z,23.1
2018-07-29T01:32:03.323Z,23
2018-07-29T01:33:05.466Z,23
2018-07-29T01:34:06.626Z,22.9
2018-07-29T01:35:07.789Z,23.1
2018-07-29T01:36:09.192Z,23.1
2018-07-29T01:37:10.339Z,22.9
2018-07-29T01:38:11.458Z,22.8
2018-07-29T01:39:13.049Z,23
2018-07-29T01:40:16.664Z,23
2018-07-29T01:41:17.827Z,23.1
2018-07-29T01:42:20.061Z,23
2018-07-29T01:43:21.270Z,23
2018-07-29T01:44:22.449Z,23
2018-07-29T01:45:23.584Z,22.6
2018-07-29T01:46:24.727Z,22.5
2018-07-29T01:47:25.855Z,22.7
2018-07-29T01:48:26.969Z,22.6
2018-07-29T01:49:28.105Z,22.6
2018-07-29T01:50:29.261Z,22.7
2018-07-29T01:51:30.373Z,22.7
2018-07-29T01:52:31.500Z,22.8
2018-07-29T01:53:32.617Z,22.9
2018-07-29T01:54:33.800Z,23
2018-07-29T01:55:34.918Z,23
2018-07-29T01:56:36.046Z,23
2018-07-29T01:57:37.186Z,22.9
2018-07-29T01:58:38.335Z,22.9
2018-07-29T01:59:39.557Z,23
2018-07-29T02:00:40.699Z,22.8
2018-07-29T02:01:41.874Z,22.7
2018-07-29T02:02:43.012Z,22.5
2018-07-29T02:03:44.235Z,22.2
2018-07-29T02:04:45.545Z,22.4
2018-07-29T02:05:46.658Z,22.4
2018-07-29T02:06:47.796Z,22.4
2018-07-29T02:07:48.921Z,22.6
2018-07-29T02:08:50.067Z,22.7
2018-07-29T02:09:51.247Z,22.7
2018-07-29T02:10:52.427Z,22.4
2018-07-29T02:11:53.584Z,22.3
2018-07-29T02:12:54.739Z,22.5
2018-07-29T02:13:55.867Z,22.6
2018-07-29T02:14:57.041Z,22.7
2018-07-29T02:15:58.168Z,22.7
2018-07-29T02:16:59.333Z,22.7
2018-07-29T02:18:00.494Z,22.7
2018-07-29T02:19:01.721Z,22.7
2018-07-29T02:20:02.892Z,22.7
2018-07-29T02:21:04.066Z,22.6
2018-07-29T02:22:05.209Z,22.7
2018-07-29T02:23:07.386Z,22.6
2018-07-29T02:24:08.516Z,22.2
2018-07-29T02:25:09.717Z,22.4
2018-07-29T02:26:10.849Z,22.5
2018-07-29T02:27:11.982Z,22.1
2018-07-29T02:28:13.099Z,21.8
2018-07-29T02:29:14.239Z,21.7
2018-07-29T02:30:15.413Z,22
2018-07-29T02:31:16.552Z,22.3
2018-07-29T02:32:17.704Z,22.5
2018-07-29T02:33:18.836Z,22.5
2018-07-29T02:34:19.992Z,22.6
2018-07-29T02:35:21.191Z,22.5
2018-07-29T02:36:22.346Z,22.4
2018-07-29T02:37:23.552Z,22.5
2018-07-29T02:38:24.701Z,22.6
2018-07-29T02:39:25.847Z,22.6
2018-07-29T02:40:27.336Z,22.5
2018-07-29T02:41:29.460Z,22.5
2018-07-29T02:42:31.588Z,22.5
2018-07-29T02:43:32.717Z,22.5
2018-07-29T02:44:33.907Z,22.5
2018-07-29T02:45:35.078Z,22.5
2018-07-29T02:46:36.224Z,22.5
2018-07-29T02:47:37.364Z,22.5
2018-07-29T02:48:38.490Z,22.4
2018-07-29T02:49:39.640Z,22.3
2018-07-29T02:50:40.822Z,22
2018-07-29T02:51:41.973Z,22
2018-07-29T02:52:43.124Z,22.1
2018-07-29T02:53:44.249Z,22.3
2018-07-29T02:54:46.430Z,22.2
2018-07-29T02:55:47.634Z,22.3
2018-07-29T02:56:50.885Z,22.3
2018-07-29T02:57:52.021Z,22.3
2018-07-29T02:58:53.154Z,22.1
2018-07-29T02:59:54.297Z,22
2018-07-29T03:00:55.464Z,21.7
2018-07-29T03:01:56.601Z,21.5
2018-07-29T03:02:57.756Z,21.8
2018-07-29T03:03:58.911Z,22
2018-07-29T03:05:00.082Z,21.9
2018-07-29T03:06:01.291Z,21.7
2018-07-29T03:07:02.466Z,21.5
2018-07-29T03:08:03.615Z,21.9
2018-07-29T03:09:04.806Z,22
2018-07-29T03:10:05.941Z,21.9
2018-07-29T03:11:07.151Z,21.9
2018-07-29T03:12:08.310Z,22.1
2018-07-29T03:13:09.496Z,22.2
2018-07-29T03:14:10.646Z,22.2
2018-07-29T03:15:11.816Z,22.2
2018-07-29T03:16:12.981Z,22.2
2018-07-29T03:17:14.124Z,22.2
2018-07-29T03:18:15.273Z,22.2
2018-07-29T03:19:16.406Z,22.2
2018-07-29T03:20:17.606Z,22.2
2018-07-29T03:21:18.849Z,22.1
2018-07-29T03:22:20.328Z,22.2
2018-07-29T03:23:21.455Z,22.2
2018-07-29T03:24:22.606Z,22.2
2018-07-29T03:25:23.725Z,22.2
2018-07-29T03:26:24.966Z,22.2
2018-07-29T03:27:26.123Z,22.1
2018-07-29T03:28:27.273Z,22.1
2018-07-29T03:29:28.465Z,22.1
2018-07-29T03:30:29.640Z,22.1
2018-07-29T03:31:30.836Z,22.2
2018-07-29T03:32:32.010Z,22.2
2018-07-29T03:33:33.212Z,22
2018-07-29T03:34:35.182Z,21.9
2018-07-29T03:35:36.290Z,21.7
2018-07-29T03:36:37.465Z,21.2
2018-07-29T03:37:38.604Z,21.1
2018-07-29T03:38:39.753Z,21.2
2018-07-29T03:39:40.923Z,21
2018-07-29T03:40:42.141Z,21.1
2018-07-29T03:41:43.368Z,21.3
2018-07-29T03:42:44.593Z,21.6
2018-07-29T03:43:45.778Z,21.7
2018-07-29T03:44:46.950Z,21.7
2018-07-29T03:45:48.117Z,21.4
2018-07-29T03:46:49.266Z,21.1
2018-07-29T03:47:50.401Z,20.9
2018-07-29T03:48:51.562Z,21
2018-07-29T03:49:52.705Z,21.1
2018-07-29T03:50:53.870Z,21.1
2018-07-29T03:51:55.027Z,21.1
2018-07-29T03:52:56.138Z,21.1
2018-07-29T03:53:57.273Z,21
2018-07-29T03:54:58.429Z,21.1
2018-07-29T03:55:59.576Z,21
2018-07-29T03:57:01.575Z,21.1
2018-07-29T03:58:02.712Z,20.9
2018-07-29T03:59:03.876Z,20.9
2018-07-29T04:00:05.022Z,20.6
2018-07-29T04:01:06.181Z,20.5
2018-07-29T04:02:07.350Z,20.5
2018-07-29T04:03:08.802Z,20.4
2018-07-29T04:04:09.930Z,20.6
2018-07-29T04:05:11.137Z,21
2018-07-29T04:06:12.269Z,21.4
2018-07-29T04:07:15.868Z,21.2
2018-07-29T04:08:17.000Z,20.7
2018-07-29T04:09:18.140Z,20.5
2018-07-29T04:10:19.329Z,20.4
2018-07-29T04:11:20.512Z,20.3
2018-07-29T04:12:21.853Z,20.4
2018-07-29T04:13:23.252Z,20.5
2018-07-29T04:14:24.488Z,20.7
2018-07-29T04:15:25.615Z,20.5
2018-07-29T04:16:27.585Z,20.6
2018-07-29T04:17:28.841Z,20.4
2018-07-29T04:18:30.030Z,20.6
2018-07-29T04:19:31.173Z,20.7
2018-07-29T04:20:32.322Z,20.8
2018-07-29T04:21:33.442Z,20.9
2018-07-29T04:22:34.592Z,20.9
2018-07-29T04:23:35.738Z,20.9
2018-07-29T04:24:36.880Z,21.1
2018-07-29T04:25:38.048Z,21.2
2018-07-29T04:26:39.173Z,21.5
2018-07-29T04:27:40.385Z,21.7
2018-07-29T04:28:41.532Z,21.8
2018-07-29T04:29:42.677Z,21.8
2018-07-29T04:30:43.812Z,21.8
2018-07-29T04:31:44.956Z,21.4
2018-07-29T04:32:46.361Z,21
2018-07-29T04:33:47.494Z,20.3
2018-07-29T04:34:48.622Z,20.1
2018-07-29T04:35:49.758Z,20.9
2018-07-29T04:36:51.286Z,20.9
2018-07-29T04:37:52.412Z,20.5
2018-07-29T04:38:53.761Z,21
2018-07-29T04:39:54.897Z,20.8
2018-07-29T04:40:56.021Z,20.9
2018-07-29T04:41:57.164Z,21
2018-07-29T04:42:58.389Z,21.1
2018-07-29T04:43:59.535Z,20.6
2018-07-29T04:45:00.692Z,20.8
2018-07-29T04:46:01.914Z,21.1
2018-07-29T04:47:03.061Z,21.1
2018-07-29T04:48:04.228Z,21.2
2018-07-29T04:49:05.403Z,20.9
2018-07-29T04:50:06.560Z,20.1
2018-07-29T04:51:07.681Z,20.3
2018-07-29T04:52:08.834Z,20.5
2018-07-29T04:53:10.018Z,20.3
2018-07-29T04:54:11.213Z,20.2
2018-07-29T04:55:12.360Z,20.4
2018-07-29T04:56:13.532Z,20.7
2018-07-29T04:57:17.173Z,20.7
2018-07-29T04:58:18.389Z,20.2
2018-07-29T04:59:19.557Z,20.6
2018-07-29T05:00:20.733Z,20.8
2018-07-29T05:01:22.188Z,20.8
2018-07-29T05:02:23.343Z,20.2
2018-07-29T05:03:24.535Z,20.1
2018-07-29T05:04:25.741Z,20
2018-07-29T05:05:26.917Z,20.5
2018-07-29T05:06:28.073Z,21.1
2018-07-29T05:07:29.233Z,20.7
2018-07-29T05:08:30.404Z,20.4
2018-07-29T05:09:31.566Z,20.4
2018-07-29T05:10:32.720Z,20.8
2018-07-29T05:11:33.855Z,21.2
2018-07-29T05:12:35.259Z,21.4
2018-07-29T05:13:36.681Z,21.4
2018-07-29T05:14:37.830Z,21.3
2018-07-29T05:15:38.996Z,21.5
2018-07-29T05:16:40.149Z,21.5
2018-07-29T05:17:41.305Z,21.5
2018-07-29T05:18:42.496Z,21.5
2018-07-29T05:19:43.680Z,21.6
2018-07-29T05:20:44.832Z,21.8
2018-07-29T05:21:45.973Z,21.8
2018-07-29T05:22:49.298Z,21.9
2018-07-29T05:23:50.474Z,21.9
2018-07-29T05:24:51.652Z,21.9
2018-07-29T05:25:52.808Z,21.9
2018-07-29T05:26:53.925Z,21.5
2018-07-29T05:27:55.075Z,21.5
2018-07-29T05:28:57.877Z,21.3
2018-07-29T05:29:59.073Z,21.4
2018-07-29T05:31:02.456Z,20.6
2018-07-29T05:32:03.788Z,20.9
2018-07-29T05:33:04.913Z,21
2018-07-29T05:34:06.077Z,20.9
2018-07-29T05:35:07.241Z,21
2018-07-29T05:36:08.392Z,21.1
2018-07-29T05:37:09.785Z,20.9
2018-07-29T05:38:10.931Z,21
2018-07-29T05:39:12.150Z,20.8
2018-07-29T05:40:13.558Z,21.1
2018-07-29T05:41:14.831Z,20.9
2018-07-29T05:42:16.109Z,21.2
2018-07-29T05:43:17.548Z,21.2
2018-07-29T05:44:18.998Z,21.5
2018-07-29T05:45:20.174Z,21.5
2018-07-29T05:46:26.000Z,21.1
2018-07-29T05:47:27.135Z,21.3
2018-07-29T05:48:28.262Z,21.6
2018-07-29T05:49:29.445Z,21.6
2018-07-29T05:50:30.592Z,21.5
2018-07-29T05:51:31.789Z,21.4
2018-07-29T05:52:32.956Z,21.2
2018-07-29T05:53:34.129Z,21
2018-07-29T05:54:35.276Z,21.2
2018-07-29T05:55:36.433Z,21.8
2018-07-29T05:56:37.576Z,22.1
2018-07-29T05:57:38.728Z,22.4
2018-07-29T05:58:39.860Z,22.6
2018-07-29T05:59:41.371Z,22.8
2018-07-29T06:00:42.522Z,22.9
2018-07-29T06:01:43.697Z,23.1
2018-07-29T06:02:45.192Z,23
2018-07-29T06:03:47.184Z,23
2018-07-29T06:04:48.354Z,23.2
2018-07-29T06:05:49.497Z,23.2
2018-07-29T06:06:50.620Z,23.1
2018-07-29T06:07:51.812Z,23.5
2018-07-29T06:08:52.964Z,23.7
2018-07-29T06:09:54.139Z,23.6
2018-07-29T06:10:55.288Z,23.6
2018-07-29T06:11:56.441Z,23.8
2018-07-29T06:12:57.584Z,23.7
2018-07-29T06:13:58.729Z,24.3
2018-07-29T06:14:59.942Z,24.7
2018-07-29T06:16:01.114Z,25.4
2018-07-29T06:17:02.262Z,25.5
2018-07-29T06:18:03.401Z,25.3
2018-07-29T06:19:04.802Z,25.5
2018-07-29T06:20:06.972Z,25.4
2018-07-29T06:21:08.106Z,26.3
2018-07-29T06:22:09.256Z,25.8
2018-07-29T06:23:10.384Z,25.5
2018-07-29T06:24:11.568Z,26.2
2018-07-29T06:25:15.158Z,26.3
2018-07-29T06:26:17.149Z,27
2018-07-29T06:27:18.275Z,27.5
2018-07-29T06:28:19.412Z,27.7
2018-07-29T06:29:20.536Z,28.3
2018-07-29T06:30:21.776Z,27.6
2018-07-29T06:31:22.992Z,26.9
2018-07-29T06:32:24.084Z,27
2018-07-29T06:33:25.220Z,26.3
2018-07-29T06:34:27.154Z,25.9
2018-07-29T06:35:28.303Z,26.6
2018-07-29T06:36:29.469Z,28.1
2018-07-29T06:37:30.660Z,28.5
2018-07-29T06:38:31.877Z,27.8
2018-07-29T06:39:33.237Z,28.2
2018-07-29T06:40:34.425Z,28.1
2018-07-29T06:41:37.905Z,28.5
2018-07-29T06:42:39.077Z,27.4
2018-07-29T06:43:40.234Z,27
2018-07-29T06:44:41.773Z,27.3
2018-07-29T06:45:43.017Z,27.1
2018-07-29T06:46:44.158Z,27.8
2018-07-29T06:47:45.285Z,28
2018-07-29T06:48:46.412Z,27.5
2018-07-29T06:49:47.530Z,27.4
2018-07-29T06:50:48.771Z,27.8
2018-07-29T06:51:49.921Z,28.4
2018-07-29T06:52:51.077Z,28.5
2018-07-29T06:53:52.738Z,27.8
2018-07-29T06:54:53.873Z,28.1
2018-07-29T06:55:55.085Z,28.8
2018-07-29T06:56:56.221Z,28.1
2018-07-29T06:57:57.356Z,28.6
2018-07-29T06:58:58.494Z,28.1
2018-07-29T06:59:59.627Z,27.5
2018-07-29T07:01:00.860Z,27.6
2018-07-29T07:02:02.282Z,27.6
2018-07-29T07:03:03.616Z,27.7
2018-07-29T07:04:04.771Z,27.6
2018-07-29T07:05:06.134Z,27.5
2018-07-29T07:06:07.286Z,27.6
2018-07-29T07:07:08.450Z,27.6
2018-07-29T07:08:09.585Z,27.6
2018-07-29T07:09:10.745Z,27.4
2018-07-29T07:10:11.928Z,27.5
2018-07-29T07:11:15.310Z,27.4
2018-07-29T07:12:16.437Z,27.2
2018-07-29T07:13:17.788Z,27.4
2018-07-29T07:14:18.953Z,27.4
2018-07-29T07:15:20.086Z,27.4
2018-07-29T07:16:21.264Z,27.3
2018-07-29T07:17:22.432Z,27.1
2018-07-29T07:18:23.593Z,27.2
2018-07-29T07:19:24.733Z,27.3
2018-07-29T07:20:25.868Z,27.2
2018-07-29T07:21:27.566Z,27.4
2018-07-29T07:22:28.701Z,27.1
2018-07-29T07:23:29.858Z,27.2
2018-07-29T07:24:30.998Z,27
2018-07-29T07:25:32.164Z,27.3
2018-07-29T07:26:33.417Z,27.1
2018-07-29T07:27:34.574Z,27.2
2018-07-29T07:28:35.753Z,27
2018-07-29T07:29:36.925Z,26.6
2018-07-29T07:30:38.086Z,27
2018-07-29T07:31:39.304Z,27
2018-07-29T07:32:40.496Z,27.1
2018-07-29T07:33:41.569Z,27.1
2018-07-29T07:34:42.757Z,27.1
2018-07-29T07:35:43.871Z,27.2
2018-07-29T07:36:45.281Z,27
2018-07-29T07:37:46.511Z,26.8
2018-07-29T07:38:47.676Z,27
2018-07-29T07:39:48.808Z,27
2018-07-29T07:40:50.024Z,26.8
2018-07-29T07:41:51.160Z,27
2018-07-29T07:42:52.289Z,26.8
2018-07-29T07:43:54.458Z,26.7
2018-07-29T07:44:55.623Z,26.6
2018-07-29T07:46:01.510Z,26.8
2018-07-29T07:47:02.862Z,26.3
2018-07-29T07:48:04.336Z,26.4
2018-07-29T07:49:05.834Z,26.2
2018-07-29T07:50:07.377Z,25.9
2018-07-29T07:51:09.845Z,26.1
2018-07-29T07:52:14.142Z,25.9
2018-07-29T07:53:15.530Z,26
2018-07-29T07:54:16.663Z,26.3
2018-07-29T07:55:17.810Z,25.7
2018-07-29T07:56:19.992Z,26.1
2018-07-29T07:57:21.136Z,26.1
2018-07-29T07:58:22.697Z,26.1
2018-07-29T07:59:23.856Z,26.1
2018-07-29T08:00:25.054Z,26.1
2018-07-29T08:01:26.284Z,25.9
2018-07-29T08:02:27.532Z,26.1
2018-07-29T08:03:28.773Z,26.1
2018-07-29T08:04:30.017Z,26
2018-07-29T08:05:31.200Z,26
2018-07-29T08:06:32.388Z,25.9
2018-07-29T08:07:33.657Z,25.7
2018-07-29T08:08:34.811Z,25.8
2018-07-29T08:09:35.972Z,26
2018-07-29T08:10:39.437Z,26
2018-07-29T08:11:40.654Z,25.9
2018-07-29T08:12:41.882Z,25.9
2018-07-29T08:13:45.664Z,25.7
2018-07-29T08:14:53.829Z,25.9
2018-07-29T08:15:57.348Z,25.8
2018-07-29T08:16:59.953Z,25.8
2018-07-29T08:18:01.344Z,25.8
2018-07-29T08:19:02.544Z,25.9
2018-07-29T08:20:03.756Z,25.5
2018-07-29T08:21:04.961Z,25.3
2018-07-29T08:22:06.127Z,25.7
2018-07-29T08:23:07.352Z,25.9
2018-07-29T08:24:08.503Z,26
2018-07-29T08:25:09.694Z,26.3
2018-07-29T08:26:10.862Z,26.4
2018-07-29T08:27:12.016Z,26.4
2018-07-29T08:28:13.270Z,26.5
2018-07-29T08:29:14.409Z,26.7
2018-07-29T08:30:15.694Z,26.7
2018-07-29T08:31:19.108Z,26.7
2018-07-29T08:32:20.274Z,26.7
2018-07-29T08:33:21.574Z,26.8
2018-07-29T08:34:23.235Z,26.9
2018-07-29T08:35:24.380Z,26.9
2018-07-29T08:36:25.533Z,26.7
2018-07-29T08:37:28.023Z,26.6
2018-07-29T08:38:29.206Z,26.6
2018-07-29T08:39:30.349Z,26.5
2018-07-29T08:40:31.515Z,26.6
2018-07-29T08:41:33.644Z,26.8
2018-07-29T08:42:34.829Z,26.9
2018-07-29T08:43:44.312Z,27
2018-07-29T08:44:48.362Z,26.9
2018-07-29T08:45:50.504Z,26.9
2018-07-29T08:46:51.661Z,27
2018-07-29T08:47:52.821Z,27
2018-07-29T08:48:54.073Z,27
2018-07-29T08:49:57.537Z,26.9
2018-07-29T08:50:58.689Z,27
2018-07-29T08:51:59.817Z,27.1
2018-07-29T08:53:00.965Z,27.1
2018-07-29T08:54:02.277Z,26.8
2018-07-29T08:55:03.558Z,26.9
2018-07-29T08:56:04.686Z,27
2018-07-29T08:57:05.858Z,26.9
2018-07-29T08:58:07.039Z,27
2018-07-29T08:59:08.269Z,27
2018-07-29T09:00:09.676Z,27.1
2018-07-29T09:01:13.241Z,27
2018-07-29T09:02:20.537Z,26.9
2018-07-29T09:03:21.709Z,27.1
2018-07-29T09:04:23.096Z,27
2018-07-29T09:05:24.240Z,27.2
2018-07-29T09:06:26.331Z,27.1
2018-07-29T09:07:27.477Z,27.1
2018-07-29T09:08:28.629Z,27.3
2018-07-29T09:09:29.832Z,27
2018-07-29T09:10:31.028Z,26.9
2018-07-29T09:11:32.152Z,26.9
2018-07-29T09:12:33.285Z,27
2018-07-29T09:13:34.549Z,27.2
2018-07-29T09:14:35.720Z,27.2
2018-07-29T09:15:36.875Z,27.3
2018-07-29T09:16:38.612Z,27.1
2018-07-29T09:17:39.765Z,27.2
2018-07-29T09:18:40.897Z,27.4
2018-07-29T09:19:44.254Z,27.5
2018-07-29T09:20:45.588Z,27.7
2018-07-29T09:21:46.746Z,27.7
2018-07-29T09:22:47.881Z,27.8
2018-07-29T09:23:49.032Z,27.9
2018-07-29T09:24:52.609Z,28
2018-07-29T09:25:53.870Z,28
2018-07-29T09:26:55.284Z,27.9
2018-07-29T09:27:56.420Z,28
2018-07-29T09:28:57.578Z,28.2
2018-07-29T09:29:58.761Z,28.1
2018-07-29T09:31:00.028Z,28
2018-07-29T09:32:03.646Z,28.3
2018-07-29T09:33:04.816Z,28.3
2018-07-29T09:34:07.264Z,28.1
2018-07-29T09:35:08.509Z,28.2
2018-07-29T09:36:09.689Z,28.5
2018-07-29T09:37:10.940Z,28.5
2018-07-29T09:38:12.089Z,28.5
2018-07-29T09:39:13.227Z,28.5
2018-07-29T09:40:14.421Z,28.4
2018-07-29T09:41:15.824Z,28.6
2018-07-29T09:42:17.008Z,28.6
2018-07-29T09:43:18.149Z,28.6
2018-07-29T09:44:19.286Z,28.8
2018-07-29T09:45:20.696Z,28.7
2018-07-29T09:46:21.862Z,28.6
2018-07-29T09:47:23.409Z,28.7
2018-07-29T09:48:24.567Z,28.5
2018-07-29T09:49:25.726Z,28.7
2018-07-29T09:50:26.917Z,28.8
2018-07-29T09:51:28.045Z,28.6
2018-07-29T09:52:29.228Z,28.6
2018-07-29T09:53:33.200Z,28.7
2018-07-29T09:54:34.395Z,28.7
2018-07-29T09:55:35.581Z,28.8
2018-07-29T09:56:36.809Z,28.8
2018-07-29T09:57:37.957Z,28.9
2018-07-29T09:58:39.329Z,29
2018-07-29T09:59:40.468Z,29
2018-07-29T10:00:41.654Z,29
2018-07-29T10:01:44.284Z,29
2018-07-29T10:02:45.424Z,29.1
2018-07-29T10:03:46.586Z,29.1
2018-07-29T10:04:49.959Z,29.1
2018-07-29T10:05:51.171Z,29.3
2018-07-29T10:06:52.586Z,29.3
2018-07-29T10:07:53.960Z,29.3
2018-07-29T10:08:55.149Z,29.4
2018-07-29T10:09:56.586Z,29.4
2018-07-29T10:10:59.940Z,29.4
2018-07-29T10:12:01.280Z,29.2
2018-07-29T10:13:02.420Z,29.1
2018-07-29T10:14:04.105Z,29.1
2018-07-29T10:15:05.225Z,29.3
2018-07-29T10:16:06.629Z,29.4
2018-07-29T10:17:07.779Z,29.4
2018-07-29T10:18:09.218Z,29.5
2018-07-29T10:19:10.414Z,29.5
2018-07-29T10:20:11.587Z,29.6
2018-07-29T10:21:14.233Z,29.5
2018-07-29T10:22:15.446Z,29.5
2018-07-29T10:23:19.105Z,29.5
2018-07-29T10:24:20.280Z,29.5
2018-07-29T10:25:21.454Z,29.5
2018-07-29T10:26:25.314Z,29.5
2018-07-29T10:27:26.857Z,29.4
2018-07-29T10:28:28.245Z,29.4
2018-07-29T10:29:29.465Z,29.4
2018-07-29T10:30:31.217Z,29.3
2018-07-29T10:31:32.341Z,29.4
2018-07-29T10:32:35.080Z,29.4
2018-07-29T10:33:36.329Z,29.4
2018-07-29T10:34:37.469Z,29.5
2018-07-29T10:35:40.796Z,29.5
2018-07-29T10:36:48.444Z,29.4
2018-07-29T10:37:49.681Z,29.5
2018-07-29T10:38:50.931Z,29.5
2018-07-29T10:39:54.526Z,29.5
2018-07-29T10:40:58.286Z,29.5
2018-07-29T10:41:59.461Z,29.5
2018-07-29T10:43:00.640Z,29.5
2018-07-29T10:44:04.289Z,29.5
2018-07-29T10:45:05.424Z,29.5
2018-07-29T10:46:06.703Z,29.5
2018-07-29T10:47:08.909Z,29.5
2018-07-29T10:48:10.076Z,29.5
2018-07-29T10:49:11.493Z,29.5
2018-07-29T10:50:15.102Z,29.6
2018-07-29T10:51:16.584Z,29.7
2018-07-29T10:52:18.784Z,29.5
2018-07-29T10:53:20.119Z,29.6
2018-07-29T10:54:21.291Z,29.6
2018-07-29T10:55:22.428Z,29.7
2018-07-29T10:56:23.566Z,29.6
2018-07-29T10:57:24.824Z,29.7
2018-07-29T10:58:26.355Z,29.7
2018-07-29T10:59:28.539Z,29.6
2018-07-29T11:00:29.814Z,29.8
2018-07-29T11:01:31.223Z,29.7
2018-07-29T11:02:32.396Z,29.8
2018-07-29T11:03:33.873Z,29.9
2018-07-29T11:04:38.566Z,29.9
2018-07-29T11:05:42.262Z,29.8
2018-07-29T11:06:44.277Z,29.8
2018-07-29T11:07:46.989Z,29.8
2018-07-29T11:08:48.135Z,29.8
2018-07-29T11:09:49.500Z,29.7
2018-07-29T11:10:50.663Z,29.9
2018-07-29T11:11:51.897Z,29.9
2018-07-29T11:12:53.097Z,29.9
2018-07-29T11:13:58.778Z,30
2018-07-29T11:14:59.917Z,29.9
2018-07-29T11:16:01.112Z,29.9
2018-07-29T11:17:02.282Z,29.7
2018-07-29T11:18:03.468Z,29.8
2018-07-29T11:19:04.646Z,29.7
2018-07-29T11:20:06.796Z,29.7
2018-07-29T11:21:08.178Z,29.8
2018-07-29T11:22:09.255Z,29.8
2018-07-29T11:23:11.584Z,29.8
2018-07-29T11:24:12.822Z,29.8
2018-07-29T11:25:13.994Z,29.9
2018-07-29T11:26:15.724Z,29.8
2018-07-29T11:27:17.070Z,29.9
2018-07-29T11:28:20.512Z,29.9
2018-07-29T11:29:21.618Z,30
2018-07-29T11:30:22.805Z,30
2018-07-29T11:31:24.030Z,29.9
2018-07-29T11:32:25.482Z,29.9
2018-07-29T11:33:26.672Z,29.9
2018-07-29T11:34:27.813Z,29.9
2018-07-29T11:35:29.228Z,30
2018-07-29T11:36:30.405Z,30
2018-07-29T11:37:31.566Z,30
2018-07-29T11:38:32.786Z,30
2018-07-29T11:39:33.973Z,30.1
2018-07-29T11:40:35.369Z,30
2018-07-29T11:41:36.624Z,29.8
2018-07-29T11:42:37.701Z,29.9
2018-07-29T11:43:38.917Z,29.9
2018-07-29T11:44:40.306Z,29.9
2018-07-29T11:45:41.699Z,29.9
2018-07-29T11:46:44.712Z,29.9
2018-07-29T11:47:46.147Z,30
2018-07-29T11:48:47.324Z,30
2018-07-29T11:49:48.615Z,30.2
2018-07-29T11:50:49.792Z,30.1
2018-07-29T11:51:51.817Z,30.2
2018-07-29T11:52:53.125Z,30.3
2018-07-29T11:53:54.316Z,30.3
2018-07-29T11:54:55.456Z,30.1
2018-07-29T11:55:56.651Z,30.3
2018-07-29T11:56:58.369Z,30.2
2018-07-29T11:57:59.845Z,30.1
2018-07-29T11:59:13.438Z,30.1
2018-07-29T12:00:16.926Z,30.1
2018-07-29T12:01:18.057Z,30.2
2018-07-29T12:02:19.261Z,30.2
2018-07-29T12:03:20.703Z,30.2
2018-07-29T12:04:22.145Z,30.2
2018-07-29T12:05:25.329Z,30.4
2018-07-29T12:06:26.629Z,30.4
2018-07-29T12:07:27.773Z,30.2
2018-07-29T12:08:29.258Z,30.2
2018-07-29T12:09:33.706Z,30.4
2018-07-29T12:10:35.149Z,30.4
2018-07-29T12:11:36.514Z,30.4
2018-07-29T12:12:37.681Z,30.4
2018-07-29T12:13:39.018Z,30.3
2018-07-29T12:14:40.313Z,30.3
2018-07-29T12:15:41.778Z,30.3
2018-07-29T12:16:43.234Z,30.4
2018-07-29T12:17:44.456Z,30.4
2018-07-29T12:18:50.141Z,30.4
2018-07-29T12:19:51.372Z,30.3
2018-07-29T12:20:52.569Z,30.3
2018-07-29T12:21:56.575Z,30.3
2018-07-29T12:22:57.734Z,30.2
2018-07-29T12:23:59.961Z,30.2
2018-07-29T12:25:01.340Z,30.2
2018-07-29T12:26:03.715Z,30.3
2018-07-29T12:27:04.912Z,30.3
2018-07-29T12:28:06.499Z,30.4
2018-07-29T12:29:08.245Z,30.3
2018-07-29T12:30:09.424Z,30.2
2018-07-29T12:31:11.601Z,30.2
2018-07-29T12:32:12.764Z,30.2
2018-07-29T12:33:13.954Z,30.1
2018-07-29T12:34:17.386Z,30.2
2018-07-29T12:35:18.641Z,30.3
2018-07-29T12:36:22.117Z,30.3
2018-07-29T12:37:23.286Z,30.3
2018-07-29T12:38:24.436Z,30.5
2018-07-29T12:39:32.413Z,30.6
2018-07-29T12:40:33.851Z,30.5
2018-07-29T12:41:36.498Z,30.4
2018-07-29T12:42:44.597Z,30.4
2018-07-29T12:43:45.725Z,30.4
2018-07-29T12:44:47.350Z,30.5
2018-07-29T12:45:53.842Z,30.3
2018-07-29T12:46:57.823Z,30.4
2018-07-29T12:47:59.260Z,30.3
2018-07-29T12:49:00.765Z,30.5
2018-07-29T12:50:02.360Z,30.5
2018-07-29T12:51:03.556Z,30.6
2018-07-29T12:52:04.809Z,30.7
2018-07-29T12:53:05.972Z,30.6
2018-07-29T12:54:09.494Z,30.6
2018-07-29T12:55:10.677Z,30.7
2018-07-29T12:56:11.929Z,30.5
2018-07-29T12:57:13.105Z,30.5
2018-07-29T12:58:15.542Z,30.4
2018-07-29T12:59:19.554Z,30.4
2018-07-29T13:00:22.303Z,30.4
2018-07-29T13:01:29.085Z,30.5
2018-07-29T13:02:30.311Z,30.5
2018-07-29T13:03:31.819Z,30.5
2018-07-29T13:04:35.569Z,30.5
2018-07-29T13:05:42.793Z,30.5
2018-07-29T13:08:09.264Z,30.5
2018-07-29T13:09:20.789Z,30.5
2018-07-29T13:10:33.249Z,30.6
2018-07-29T13:11:35.443Z,30.5
2018-07-29T13:12:37.317Z,30.6
2018-07-29T13:15:00.170Z,30.6
2018-07-29T13:16:02.132Z,30.6
2018-07-29T13:17:03.555Z,30.5
2018-07-29T13:18:06.226Z,30.6
2018-07-29T13:19:07.365Z,30.7
2018-07-29T13:20:08.797Z,30.7
2018-07-29T13:21:09.922Z,30.8
2018-07-29T13:22:11.978Z,30.8
2018-07-29T13:23:20.779Z,30.8
2018-07-29T13:24:37.809Z,30.7
2018-07-29T13:25:39.362Z,30.8
2018-07-29T13:26:40.658Z,30.8
2018-07-29T13:27:42.263Z,31
2018-07-29T13:30:00.284Z,30.8
2018-07-29T13:31:01.847Z,30.9
2018-07-29T13:32:04.092Z,30.9
2018-07-29T13:33:07.215Z,30.7
2018-07-29T13:34:08.436Z,30.8
2018-07-29T13:35:11.747Z,30.8
2018-07-29T13:36:14.025Z,30.8
2018-07-29T13:37:15.213Z,30.8
2018-07-29T13:38:17.365Z,30.8
2018-07-29T13:39:18.808Z,31
2018-07-29T13:40:20.660Z,30.9
2018-07-29T13:41:21.805Z,30.9
2018-07-29T13:42:23.232Z,30.8
2018-07-29T13:43:27.277Z,30.9
2018-07-29T13:44:28.784Z,31
2018-07-29T13:45:32.646Z,30.9
2018-07-29T13:46:39.712Z,31
2018-07-29T13:47:43.320Z,31
2018-07-29T13:48:44.677Z,31
2018-07-29T13:49:46.164Z,31